< Cyclone 202121 2021 Season Cyclone 202123 >
Cyclone 202122 (Seroja)
General InformationTrack Information on Google Maps || ResourceGoogle EarthGE AnimationAtom FeedGeoJSON
Year Month Day Hour Lat. Long. Pressure (hPa) Wind (kt) Class Image Chart
2021 4 2 12 -11.0 122.5 1002 25 2 Image --
2021 4 2 18 -11.0 122.5 1000 30 2 Image --
2021 4 3 00 -10.8 122.7 1000 30 2 Image --
2021 4 3 06 -10.9 123.0 1000 30 2 Image --
2021 4 3 12 -10.7 123.4 1000 30 2 Image --
2021 4 3 18 -10.7 123.5 999 30 2 Image --
2021 4 4 00 -10.5 123.6 996 30 2 Image --
2021 4 4 06 -10.3 123.5 992 30 2 Image --
2021 4 4 12 -10.3 123.1 994 35 3 Image --
2021 4 4 18 -10.4 122.9 994 40 3 Image --
2021 4 5 00 -10.6 122.4 988 40 3 Image --
2021 4 5 06 -10.7 121.9 985 50 4 Image --
2021 4 5 09 -10.8 121.7 985 50 4 Image --
2021 4 5 12 -11.0 121.3 985 50 4 Image --
2021 4 5 18 -11.1 120.4 982 55 4 Image --
2021 4 6 00 -11.1 119.9 985 55 4 Image --
2021 4 6 06 -11.4 119.6 987 50 4 Image --
2021 4 6 12 -11.8 119.2 991 40 3 Image --
2021 4 6 18 -12.3 118.8 995 35 3 Image --
2021 4 7 00 -13.1 118.1 996 35 3 Image --
2021 4 7 06 -14.0 116.8 996 35 3 Image --
2021 4 7 12 -14.8 115.7 997 35 3 Image --
2021 4 7 18 -15.4 114.0 995 40 3 Image --
2021 4 8 00 -16.0 112.6 995 40 3 Image --
2021 4 8 06 -16.8 111.8 995 40 3 Image --
2021 4 8 12 -17.4 111.5 992 40 3 Image --
2021 4 8 18 -18.2 110.7 994 35 3 Image --
2021 4 9 00 -18.9 110.1 993 40 3 Image --
2021 4 9 06 -19.7 109.4 991 45 3 Image --
2021 4 9 12 -20.1 108.8 985 50 4 Image --
2021 4 9 18 -20.3 108.3 982 50 4 Image --
2021 4 10 00 -20.5 108.0 979 55 4 Image --
2021 4 10 06 -20.9 108.0 976 55 4 Image --
2021 4 10 12 -21.3 108.7 976 55 4 Image --
2021 4 10 18 -22.3 109.5 974 60 4 Image --
2021 4 11 00 -24.2 110.5 975 60 4 Image --
2021 4 11 06 -26.0 112.0 971 65 5 Image --
2021 4 11 12 -28.0 114.3 971 65 5 Image --
2021 4 11 18 -30.5 117.2 980 50 4 Image --
2021 4 12 00 -32.5 120.2 988 30 2 Image --
2021 4 12 06 -35.3 123.6 991 30 2 Image --
< Cyclone 202121 2021 Season Cyclone 202123 >

Help